sensor_id;sensor_type;location;lat;lon;timestamp;P1;durP1;ratioP1;P2;durP2;ratioP2
72087;SDS011;59961;50.232;8.616;2023-04-24T00:00:49;2.40;;;1.40;;
72087;SDS011;59961;50.232;8.616;2023-04-24T00:03:14;3.90;;;1.30;;
72087;SDS011;59961;50.232;8.616;2023-04-24T00:05:39;3.67;;;1.27;;
72087;SDS011;59961;50.232;8.616;2023-04-24T00:08:05;3.80;;;1.20;;
72087;SDS011;59961;50.232;8.616;2023-04-24T00:10:31;3.13;;;1.40;;
72087;SDS011;59961;50.232;8.616;2023-04-24T00:12:56;3.53;;;1.60;;
72087;SDS011;59961;50.232;8.616;2023-04-24T00:15:21;2.77;;;1.00;;
72087;SDS011;59961;50.232;8.616;2023-04-24T00:17:46;4.20;;;2.20;;
72087;SDS011;59961;50.232;8.616;2023-04-24T00:20:12;3.10;;;1.30;;
72087;SDS011;59961;50.232;8.616;2023-04-24T00:22:39;3.30;;;1.10;;
72087;SDS011;59961;50.232;8.616;2023-04-24T00:25:05;3.17;;;1.40;;
72087;SDS011;59961;50.232;8.616;2023-04-24T00:27:30;4.78;;;1.77;;
72087;SDS011;59961;50.232;8.616;2023-04-24T00:29:56;1.90;;;1.23;;
72087;SDS011;59961;50.232;8.616;2023-04-24T00:32:21;3.23;;;1.17;;
72087;SDS011;59961;50.232;8.616;2023-04-24T00:34:46;2.83;;;1.30;;
72087;SDS011;59961;50.232;8.616;2023-04-24T00:37:11;3.47;;;1.33;;
72087;SDS011;59961;50.232;8.616;2023-04-24T00:39:37;4.27;;;1.20;;
72087;SDS011;59961;50.232;8.616;2023-04-24T00:42:02;3.07;;;1.30;;
72087;SDS011;59961;50.232;8.616;2023-04-24T00:44:27;2.70;;;1.30;;
72087;SDS011;59961;50.232;8.616;2023-04-24T00:46:53;3.27;;;1.30;;
72087;SDS011;59961;50.232;8.616;2023-04-24T00:49:20;2.20;;;1.02;;
72087;SDS011;59961;50.232;8.616;2023-04-24T00:51:45;4.60;;;1.80;;
72087;SDS011;59961;50.232;8.616;2023-04-24T00:54:11;5.30;;;1.27;;
72087;SDS011;59961;50.232;8.616;2023-04-24T00:56:37;2.45;;;1.02;;
72087;SDS011;59961;50.232;8.616;2023-04-24T00:59:02;3.53;;;1.30;;
72087;SDS011;59961;50.232;8.616;2023-04-24T01:01:28;2.90;;;1.13;;
72087;SDS011;59961;50.232;8.616;2023-04-24T01:03:53;3.80;;;1.25;;
72087;SDS011;59961;50.232;8.616;2023-04-24T01:06:19;2.60;;;0.98;;
72087;SDS011;59961;50.232;8.616;2023-04-24T01:08:44;4.07;;;1.50;;
72087;SDS011;59961;50.232;8.616;2023-04-24T01:11:11;6.47;;;1.52;;
72087;SDS011;59961;50.232;8.616;2023-04-24T01:13:36;4.97;;;1.30;;
72087;SDS011;59961;50.232;8.616;2023-04-24T01:16:02;5.38;;;1.48;;
72087;SDS011;59961;50.232;8.616;2023-04-24T01:18:28;2.83;;;1.08;;
72087;SDS011;59961;50.232;8.616;2023-04-24T01:20:54;3.43;;;1.70;;
72087;SDS011;59961;50.232;8.616;2023-04-24T01:23:21;3.25;;;1.20;;
72087;SDS011;59961;50.232;8.616;2023-04-24T01:25:48;3.27;;;1.10;;
72087;SDS011;59961;50.232;8.616;2023-04-24T01:28:13;4.60;;;1.27;;
72087;SDS011;59961;50.232;8.616;2023-04-24T01:30:39;3.00;;;1.17;;
72087;SDS011;59961;50.232;8.616;2023-04-24T01:33:04;3.77;;;1.70;;
72087;SDS011;59961;50.232;8.616;2023-04-24T01:35:30;6.13;;;1.80;;
72087;SDS011;59961;50.232;8.616;2023-04-24T01:37:55;3.20;;;1.40;;
72087;SDS011;59961;50.232;8.616;2023-04-24T01:40:20;2.35;;;1.13;;
72087;SDS011;59961;50.232;8.616;2023-04-24T01:42:45;3.53;;;1.23;;
72087;SDS011;59961;50.232;8.616;2023-04-24T01:45:11;4.13;;;1.37;;
72087;SDS011;59961;50.232;8.616;2023-04-24T01:47:37;3.65;;;1.40;;
72087;SDS011;59961;50.232;8.616;2023-04-24T01:50:03;3.07;;;1.20;;
72087;SDS011;59961;50.232;8.616;2023-04-24T01:52:28;5.27;;;1.23;;
72087;SDS011;59961;50.232;8.616;2023-04-24T01:54:56;2.47;;;1.27;;
72087;SDS011;59961;50.232;8.616;2023-04-24T01:57:21;5.78;;;1.45;;
72087;SDS011;59961;50.232;8.616;2023-04-24T01:59:47;3.33;;;1.37;;
72087;SDS011;59961;50.232;8.616;2023-04-24T02:02:12;4.90;;;1.80;;
72087;SDS011;59961;50.232;8.616;2023-04-24T02:04:37;3.92;;;1.42;;
72087;SDS011;59961;50.232;8.616;2023-04-24T02:07:02;3.43;;;1.20;;
72087;SDS011;59961;50.232;8.616;2023-04-24T02:09:27;3.30;;;1.23;;
72087;SDS011;59961;50.232;8.616;2023-04-24T02:11:54;1.80;;;1.13;;
72087;SDS011;59961;50.232;8.616;2023-04-24T02:14:19;4.03;;;1.45;;
72087;SDS011;59961;50.232;8.616;2023-04-24T02:16:44;4.57;;;1.23;;
72087;SDS011;59961;50.232;8.616;2023-04-24T02:19:09;5.83;;;1.40;;
72087;SDS011;59961;50.232;8.616;2023-04-24T02:21:35;3.13;;;1.00;;
72087;SDS011;59961;50.232;8.616;2023-04-24T02:24:00;4.27;;;1.40;;
72087;SDS011;59961;50.232;8.616;2023-04-24T02:26:25;2.13;;;0.80;;
72087;SDS011;59961;50.232;8.616;2023-04-24T02:28:51;3.20;;;1.17;;
72087;SDS011;59961;50.232;8.616;2023-04-24T02:31:16;2.60;;;1.00;;
72087;SDS011;59961;50.232;8.616;2023-04-24T02:33:41;4.30;;;1.50;;
72087;SDS011;59961;50.232;8.616;2023-04-24T02:36:06;2.93;;;1.00;;
72087;SDS011;59961;50.232;8.616;2023-04-24T02:38:31;3.80;;;1.40;;
72087;SDS011;59961;50.232;8.616;2023-04-24T02:40:56;2.38;;;1.13;;
72087;SDS011;59961;50.232;8.616;2023-04-24T02:43:22;3.20;;;1.20;;
72087;SDS011;59961;50.232;8.616;2023-04-24T02:45:47;4.90;;;1.60;;
72087;SDS011;59961;50.232;8.616;2023-04-24T02:48:12;6.53;;;1.80;;
72087;SDS011;59961;50.232;8.616;2023-04-24T02:50:37;3.25;;;1.52;;
72087;SDS011;59961;50.232;8.616;2023-04-24T02:53:02;4.23;;;1.60;;
72087;SDS011;59961;50.232;8.616;2023-04-24T02:55:28;2.30;;;1.20;;
72087;SDS011;59961;50.232;8.616;2023-04-24T02:57:53;2.97;;;1.35;;
72087;SDS011;59961;50.232;8.616;2023-04-24T03:00:18;5.27;;;1.57;;
72087;SDS011;59961;50.232;8.616;2023-04-24T03:02:43;4.63;;;1.60;;
72087;SDS011;59961;50.232;8.616;2023-04-24T03:05:08;3.27;;;1.30;;
72087;SDS011;59961;50.232;8.616;2023-04-24T03:07:36;3.72;;;1.73;;
72087;SDS011;59961;50.232;8.616;2023-04-24T03:10:01;5.57;;;1.65;;
72087;SDS011;59961;50.232;8.616;2023-04-24T03:12:27;6.13;;;1.57;;
72087;SDS011;59961;50.232;8.616;2023-04-24T03:14:53;3.90;;;1.17;;
72087;SDS011;59961;50.232;8.616;2023-04-24T03:17:18;3.70;;;1.20;;
72087;SDS011;59961;50.232;8.616;2023-04-24T03:19:43;2.63;;;1.45;;
72087;SDS011;59961;50.232;8.616;2023-04-24T03:22:08;3.43;;;1.23;;
72087;SDS011;59961;50.232;8.616;2023-04-24T03:24:34;3.90;;;1.80;;
72087;SDS011;59961;50.232;8.616;2023-04-24T03:26:59;3.07;;;1.20;;
72087;SDS011;59961;50.232;8.616;2023-04-24T03:29:25;3.65;;;1.13;;
72087;SDS011;59961;50.232;8.616;2023-04-24T03:31:50;3.97;;;1.60;;
72087;SDS011;59961;50.232;8.616;2023-04-24T03:34:16;2.63;;;1.20;;
72087;SDS011;59961;50.232;8.616;2023-04-24T03:36:41;2.10;;;1.03;;
72087;SDS011;59961;50.232;8.616;2023-04-24T03:39:06;3.53;;;1.30;;
72087;SDS011;59961;50.232;8.616;2023-04-24T03:41:32;3.23;;;1.30;;
72087;SDS011;59961;50.232;8.616;2023-04-24T03:43:57;4.57;;;1.50;;
72087;SDS011;59961;50.232;8.616;2023-04-24T03:46:22;1.88;;;1.15;;
72087;SDS011;59961;50.232;8.616;2023-04-24T03:48:47;4.33;;;1.50;;
72087;SDS011;59961;50.232;8.616;2023-04-24T03:51:13;3.77;;;1.30;;
72087;SDS011;59961;50.232;8.616;2023-04-24T03:53:38;3.07;;;1.60;;
72087;SDS011;59961;50.232;8.616;2023-04-24T03:56:03;7.80;;;1.20;;
72087;SDS011;59961;50.232;8.616;2023-04-24T03:58:29;5.65;;;1.27;;
72087;SDS011;59961;50.232;8.616;2023-04-24T04:00:54;3.37;;;1.17;;
72087;SDS011;59961;50.232;8.616;2023-04-24T04:03:21;4.53;;;1.30;;
72087;SDS011;59961;50.232;8.616;2023-04-24T04:05:46;4.53;;;1.37;;
72087;SDS011;59961;50.232;8.616;2023-04-24T04:08:12;5.63;;;1.53;;
72087;SDS011;59961;50.232;8.616;2023-04-24T04:10:37;5.32;;;1.75;;
72087;SDS011;59961;50.232;8.616;2023-04-24T04:13:02;4.93;;;1.60;;
72087;SDS011;59961;50.232;8.616;2023-04-24T04:15:27;1.87;;;1.07;;
72087;SDS011;59961;50.232;8.616;2023-04-24T04:17:52;3.60;;;1.30;;
72087;SDS011;59961;50.232;8.616;2023-04-24T04:20:17;4.13;;;1.65;;
72087;SDS011;59961;50.232;8.616;2023-04-24T04:22:42;4.60;;;1.40;;
72087;SDS011;59961;50.232;8.616;2023-04-24T04:25:08;6.00;;;1.40;;
72087;SDS011;59961;50.232;8.616;2023-04-24T04:27:33;5.37;;;1.70;;
72087;SDS011;59961;50.232;8.616;2023-04-24T04:30:00;3.90;;;1.17;;
72087;SDS011;59961;50.232;8.616;2023-04-24T04:32:30;2.75;;;1.35;;
72087;SDS011;59961;50.232;8.616;2023-04-24T04:34:55;2.30;;;0.97;;
72087;SDS011;59961;50.232;8.616;2023-04-24T04:37:20;2.03;;;1.20;;
72087;SDS011;59961;50.232;8.616;2023-04-24T04:39:45;3.30;;;1.60;;
72087;SDS011;59961;50.232;8.616;2023-04-24T04:42:10;4.83;;;1.67;;
72087;SDS011;59961;50.232;8.616;2023-04-24T04:44:36;2.58;;;1.20;;
72087;SDS011;59961;50.232;8.616;2023-04-24T04:47:01;2.87;;;1.43;;
72087;SDS011;59961;50.232;8.616;2023-04-24T04:49:28;4.03;;;1.30;;
72087;SDS011;59961;50.232;8.616;2023-04-24T04:51:54;4.10;;;1.60;;
72087;SDS011;59961;50.232;8.616;2023-04-24T04:54:19;2.38;;;1.38;;
72087;SDS011;59961;50.232;8.616;2023-04-24T04:56:44;4.37;;;1.50;;
72087;SDS011;59961;50.232;8.616;2023-04-24T04:59:09;2.63;;;1.27;;
72087;SDS011;59961;50.232;8.616;2023-04-24T05:01:35;4.07;;;1.75;;
72087;SDS011;59961;50.232;8.616;2023-04-24T05:04:01;2.77;;;1.17;;
72087;SDS011;59961;50.232;8.616;2023-04-24T05:06:26;1.70;;;1.02;;
72087;SDS011;59961;50.232;8.616;2023-04-24T05:08:52;3.13;;;1.23;;
72087;SDS011;59961;50.232;8.616;2023-04-24T05:11:21;1.85;;;1.13;;
72087;SDS011;59961;50.232;8.616;2023-04-24T05:13:47;1.73;;;1.17;;
72087;SDS011;59961;50.232;8.616;2023-04-24T05:16:12;4.22;;;1.40;;
72087;SDS011;59961;50.232;8.616;2023-04-24T05:18:37;3.37;;;1.33;;
72087;SDS011;59961;50.232;8.616;2023-04-24T05:21:02;6.85;;;1.80;;
72087;SDS011;59961;50.232;8.616;2023-04-24T05:23:27;3.45;;;1.02;;
72087;SDS011;59961;50.232;8.616;2023-04-24T05:25:52;4.57;;;1.67;;
72087;SDS011;59961;50.232;8.616;2023-04-24T05:28:17;7.28;;;1.80;;
72087;SDS011;59961;50.232;8.616;2023-04-24T05:30:43;3.43;;;1.37;;
72087;SDS011;59961;50.232;8.616;2023-04-24T05:33:08;3.97;;;1.57;;
72087;SDS011;59961;50.232;8.616;2023-04-24T05:35:34;2.90;;;1.42;;
72087;SDS011;59961;50.232;8.616;2023-04-24T05:37:59;2.03;;;1.00;;
72087;SDS011;59961;50.232;8.616;2023-04-24T05:40:24;2.72;;;1.40;;
72087;SDS011;59961;50.232;8.616;2023-04-24T05:42:49;2.95;;;1.27;;
72087;SDS011;59961;50.232;8.616;2023-04-24T05:45:15;5.27;;;2.00;;
72087;SDS011;59961;50.232;8.616;2023-04-24T05:47:41;2.00;;;1.30;;
72087;SDS011;59961;50.232;8.616;2023-04-24T05:50:07;2.15;;;1.40;;
72087;SDS011;59961;50.232;8.616;2023-04-24T05:52:32;2.00;;;1.43;;
72087;SDS011;59961;50.232;8.616;2023-04-24T05:54:58;2.07;;;1.27;;
72087;SDS011;59961;50.232;8.616;2023-04-24T05:57:23;2.70;;;1.60;;
72087;SDS011;59961;50.232;8.616;2023-04-24T05:59:48;6.70;;;1.87;;
72087;SDS011;59961;50.232;8.616;2023-04-24T06:02:13;5.43;;;1.70;;
72087;SDS011;59961;50.232;8.616;2023-04-24T06:04:38;2.95;;;1.55;;
72087;SDS011;59961;50.232;8.616;2023-04-24T06:07:03;4.05;;;1.92;;
72087;SDS011;59961;50.232;8.616;2023-04-24T06:09:28;4.07;;;1.98;;
72087;SDS011;59961;50.232;8.616;2023-04-24T06:11:54;6.70;;;1.73;;
72087;SDS011;59961;50.232;8.616;2023-04-24T06:14:19;4.30;;;1.63;;
72087;SDS011;59961;50.232;8.616;2023-04-24T06:16:44;5.07;;;1.97;;
72087;SDS011;59961;50.232;8.616;2023-04-24T06:19:10;3.45;;;1.80;;
72087;SDS011;59961;50.232;8.616;2023-04-24T06:21:35;3.83;;;1.90;;
72087;SDS011;59961;50.232;8.616;2023-04-24T06:24:00;3.67;;;1.57;;
72087;SDS011;59961;50.232;8.616;2023-04-24T06:26:25;3.83;;;1.60;;
72087;SDS011;59961;50.232;8.616;2023-04-24T06:28:51;3.42;;;1.60;;
72087;SDS011;59961;50.232;8.616;2023-04-24T06:31:18;3.38;;;1.60;;
72087;SDS011;59961;50.232;8.616;2023-04-24T06:33:43;3.40;;;1.90;;
72087;SDS011;59961;50.232;8.616;2023-04-24T06:36:08;6.00;;;2.10;;
72087;SDS011;59961;50.232;8.616;2023-04-24T06:38:34;4.53;;;2.23;;
72087;SDS011;59961;50.232;8.616;2023-04-24T06:40:59;5.13;;;2.30;;
72087;SDS011;59961;50.232;8.616;2023-04-24T06:43:24;6.25;;;2.53;;
72087;SDS011;59961;50.232;8.616;2023-04-24T06:45:49;5.40;;;2.37;;
72087;SDS011;59961;50.232;8.616;2023-04-24T06:48:15;5.50;;;2.17;;
72087;SDS011;59961;50.232;8.616;2023-04-24T06:50:40;6.20;;;2.77;;
72087;SDS011;59961;50.232;8.616;2023-04-24T06:53:05;5.72;;;2.53;;
72087;SDS011;59961;50.232;8.616;2023-04-24T06:55:30;4.83;;;2.67;;
72087;SDS011;59961;50.232;8.616;2023-04-24T06:57:56;6.93;;;2.67;;
72087;SDS011;59961;50.232;8.616;2023-04-24T07:00:21;3.73;;;2.30;;
72087;SDS011;59961;50.232;8.616;2023-04-24T07:02:46;5.37;;;2.57;;
72087;SDS011;59961;50.232;8.616;2023-04-24T07:05:11;6.20;;;2.35;;
72087;SDS011;59961;50.232;8.616;2023-04-24T07:07:37;4.40;;;2.55;;
72087;SDS011;59961;50.232;8.616;2023-04-24T07:10:04;4.67;;;2.13;;
72087;SDS011;59961;50.232;8.616;2023-04-24T07:12:29;4.30;;;2.20;;
72087;SDS011;59961;50.232;8.616;2023-04-24T07:14:54;5.43;;;2.88;;
72087;SDS011;59961;50.232;8.616;2023-04-24T07:17:20;3.85;;;1.98;;
72087;SDS011;59961;50.232;8.616;2023-04-24T07:19:45;4.75;;;2.33;;
72087;SDS011;59961;50.232;8.616;2023-04-24T07:22:10;4.60;;;2.10;;
72087;SDS011;59961;50.232;8.616;2023-04-24T07:24:41;5.67;;;2.40;;
72087;SDS011;59961;50.232;8.616;2023-04-24T07:27:06;4.07;;;1.70;;
72087;SDS011;59961;50.232;8.616;2023-04-24T07:29:31;4.43;;;2.30;;
72087;SDS011;59961;50.232;8.616;2023-04-24T07:31:56;3.22;;;1.70;;
72087;SDS011;59961;50.232;8.616;2023-04-24T07:34:22;6.18;;;2.40;;
72087;SDS011;59961;50.232;8.616;2023-04-24T07:36:47;5.57;;;2.22;;
72087;SDS011;59961;50.232;8.616;2023-04-24T07:39:12;4.25;;;2.20;;
72087;SDS011;59961;50.232;8.616;2023-04-24T07:41:37;4.53;;;2.13;;
72087;SDS011;59961;50.232;8.616;2023-04-24T07:44:03;2.90;;;1.87;;
72087;SDS011;59961;50.232;8.616;2023-04-24T07:46:29;5.37;;;2.27;;
72087;SDS011;59961;50.232;8.616;2023-04-24T07:48:54;4.45;;;1.88;;
72087;SDS011;59961;50.232;8.616;2023-04-24T07:51:20;3.67;;;1.90;;
72087;SDS011;59961;50.232;8.616;2023-04-24T07:53:45;3.60;;;1.80;;
72087;SDS011;59961;50.232;8.616;2023-04-24T07:56:10;3.17;;;1.80;;
72087;SDS011;59961;50.232;8.616;2023-04-24T07:58:35;3.70;;;1.97;;
72087;SDS011;59961;50.232;8.616;2023-04-24T08:01:00;4.00;;;2.07;;
72087;SDS011;59961;50.232;8.616;2023-04-24T08:03:25;4.20;;;2.20;;
72087;SDS011;59961;50.232;8.616;2023-04-24T08:05:51;3.95;;;1.92;;
72087;SDS011;59961;50.232;8.616;2023-04-24T08:08:16;4.63;;;2.07;;
72087;SDS011;59961;50.232;8.616;2023-04-24T08:10:41;3.90;;;2.00;;
72087;SDS011;59961;50.232;8.616;2023-04-24T08:13:06;3.50;;;1.90;;
72087;SDS011;59961;50.232;8.616;2023-04-24T08:15:31;2.57;;;2.10;;
72087;SDS011;59961;50.232;8.616;2023-04-24T08:17:57;3.28;;;1.88;;
72087;SDS011;59961;50.232;8.616;2023-04-24T08:20:22;3.40;;;2.13;;
72087;SDS011;59961;50.232;8.616;2023-04-24T08:22:47;3.80;;;2.20;;
72087;SDS011;59961;50.232;8.616;2023-04-24T08:25:13;4.43;;;1.90;;
72087;SDS011;59961;50.232;8.616;2023-04-24T08:27:38;2.85;;;1.70;;
72087;SDS011;59961;50.232;8.616;2023-04-24T08:30:04;3.63;;;1.98;;
72087;SDS011;59961;50.232;8.616;2023-04-24T08:32:29;3.40;;;2.10;;
72087;SDS011;59961;50.232;8.616;2023-04-24T08:34:55;3.17;;;1.80;;
72087;SDS011;59961;50.232;8.616;2023-04-24T08:37:22;5.13;;;1.90;;
72087;SDS011;59961;50.232;8.616;2023-04-24T08:39:47;3.23;;;1.80;;
72087;SDS011;59961;50.232;8.616;2023-04-24T08:42:12;3.13;;;1.60;;
72087;SDS011;59961;50.232;8.616;2023-04-24T08:44:38;5.10;;;2.03;;
72087;SDS011;59961;50.232;8.616;2023-04-24T08:47:03;3.40;;;2.00;;
72087;SDS011;59961;50.232;8.616;2023-04-24T08:49:29;3.43;;;1.80;;
72087;SDS011;59961;50.232;8.616;2023-04-24T08:51:54;4.88;;;2.20;;
72087;SDS011;59961;50.232;8.616;2023-04-24T08:54:20;5.03;;;1.67;;
72087;SDS011;59961;50.232;8.616;2023-04-24T08:56:45;4.30;;;1.87;;
72087;SDS011;59961;50.232;8.616;2023-04-24T08:59:12;4.07;;;1.80;;
72087;SDS011;59961;50.232;8.616;2023-04-24T09:01:38;3.90;;;1.90;;
72087;SDS011;59961;50.232;8.616;2023-04-24T09:04:04;5.65;;;2.13;;
72087;SDS011;59961;50.232;8.616;2023-04-24T09:06:31;3.53;;;1.97;;
72087;SDS011;59961;50.232;8.616;2023-04-24T09:08:57;3.17;;;1.70;;
72087;SDS011;59961;50.232;8.616;2023-04-24T09:11:23;3.55;;;1.60;;
72087;SDS011;59961;50.232;8.616;2023-04-24T09:13:49;3.90;;;1.70;;
72087;SDS011;59961;50.232;8.616;2023-04-24T09:16:14;5.45;;;1.40;;
72087;SDS011;59961;50.232;8.616;2023-04-24T09:18:40;3.60;;;1.70;;
72087;SDS011;59961;50.232;8.616;2023-04-24T09:21:08;2.97;;;1.60;;
72087;SDS011;59961;50.232;8.616;2023-04-24T09:23:34;3.57;;;1.83;;
72087;SDS011;59961;50.232;8.616;2023-04-24T09:25:59;6.33;;;2.17;;
72087;SDS011;59961;50.232;8.616;2023-04-24T09:31:12;3.70;;;1.98;;
72087;SDS011;59961;50.232;8.616;2023-04-24T09:33:38;3.42;;;1.83;;
72087;SDS011;59961;50.232;8.616;2023-04-24T09:36:04;3.17;;;1.57;;
72087;SDS011;59961;50.232;8.616;2023-04-24T09:38:35;4.20;;;1.90;;
72087;SDS011;59961;50.232;8.616;2023-04-24T09:41:01;3.03;;;1.47;;
72087;SDS011;59961;50.232;8.616;2023-04-24T09:43:28;4.93;;;2.78;;
72087;SDS011;59961;50.232;8.616;2023-04-24T09:45:55;4.95;;;1.60;;
72087;SDS011;59961;50.232;8.616;2023-04-24T09:48:20;3.67;;;2.03;;
72087;SDS011;59961;50.232;8.616;2023-04-24T09:50:54;3.42;;;1.83;;
72087;SDS011;59961;50.232;8.616;2023-04-24T09:53:23;3.80;;;1.97;;
72087;SDS011;59961;50.232;8.616;2023-04-24T09:55:48;4.93;;;1.90;;
72087;SDS011;59961;50.232;8.616;2023-04-24T09:58:15;5.93;;;2.20;;
72087;SDS011;59961;50.232;8.616;2023-04-24T10:00:40;3.10;;;1.67;;
72087;SDS011;59961;50.232;8.616;2023-04-24T10:03:06;5.30;;;1.90;;
72087;SDS011;59961;50.232;8.616;2023-04-24T10:05:34;2.90;;;1.70;;
72087;SDS011;59961;50.232;8.616;2023-04-24T10:08:01;2.65;;;1.38;;
72087;SDS011;59961;50.232;8.616;2023-04-24T10:10:27;2.90;;;1.75;;
72087;SDS011;59961;50.232;8.616;2023-04-24T10:12:52;2.67;;;1.50;;
72087;SDS011;59961;50.232;8.616;2023-04-24T10:15:18;2.73;;;1.40;;
72087;SDS011;59961;50.232;8.616;2023-04-24T10:17:46;3.20;;;1.42;;
72087;SDS011;59961;50.232;8.616;2023-04-24T10:20:16;3.42;;;1.55;;
72087;SDS011;59961;50.232;8.616;2023-04-24T10:22:42;3.03;;;1.70;;
72087;SDS011;59961;50.232;8.616;2023-04-24T10:25:07;2.43;;;1.30;;
72087;SDS011;59961;50.232;8.616;2023-04-24T10:27:33;3.20;;;1.60;;
72087;SDS011;59961;50.232;8.616;2023-04-24T10:30:00;2.22;;;1.17;;
72087;SDS011;59961;50.232;8.616;2023-04-24T10:32:26;2.78;;;1.13;;
72087;SDS011;59961;50.232;8.616;2023-04-24T10:34:51;2.37;;;1.40;;
72087;SDS011;59961;50.232;8.616;2023-04-24T10:37:16;2.47;;;1.43;;
72087;SDS011;59961;50.232;8.616;2023-04-24T10:39:41;3.17;;;1.57;;
72087;SDS011;59961;50.232;8.616;2023-04-24T10:42:16;3.90;;;1.40;;
72087;SDS011;59961;50.232;8.616;2023-04-24T10:44:41;2.03;;;1.00;;
72087;SDS011;59961;50.232;8.616;2023-04-24T10:47:07;3.23;;;1.10;;
72087;SDS011;59961;50.232;8.616;2023-04-24T10:49:37;3.17;;;1.23;;
72087;SDS011;59961;50.232;8.616;2023-04-24T10:52:03;2.93;;;1.00;;
72087;SDS011;59961;50.232;8.616;2023-04-24T10:59:39;3.25;;;1.70;;
72087;SDS011;59961;50.232;8.616;2023-04-24T11:02:04;2.00;;;1.30;;
72087;SDS011;59961;50.232;8.616;2023-04-24T11:04:32;2.97;;;1.95;;
72087;SDS011;59961;50.232;8.616;2023-04-24T11:06:58;3.03;;;1.60;;
72087;SDS011;59961;50.232;8.616;2023-04-24T11:09:26;1.80;;;0.83;;
72087;SDS011;59961;50.232;8.616;2023-04-24T11:11:51;2.53;;;1.50;;
72087;SDS011;59961;50.232;8.616;2023-04-24T11:14:27;2.73;;;1.20;;
72087;SDS011;59961;50.232;8.616;2023-04-24T11:16:52;2.13;;;1.20;;
72087;SDS011;59961;50.232;8.616;2023-04-24T11:19:22;1.95;;;1.10;;
72087;SDS011;59961;50.232;8.616;2023-04-24T11:24:27;2.60;;;1.50;;
72087;SDS011;59961;50.232;8.616;2023-04-24T11:26:56;1.43;;;0.80;;
72087;SDS011;59961;50.232;8.616;2023-04-24T11:29:21;1.60;;;1.10;;
72087;SDS011;59961;50.232;8.616;2023-04-24T11:31:47;2.17;;;1.10;;
72087;SDS011;59961;50.232;8.616;2023-04-24T11:34:17;1.53;;;0.77;;
72087;SDS011;59961;50.232;8.616;2023-04-24T11:36:43;2.30;;;1.33;;
72087;SDS011;59961;50.232;8.616;2023-04-24T11:39:09;3.58;;;1.35;;
72087;SDS011;59961;50.232;8.616;2023-04-24T11:41:36;3.45;;;1.30;;
72087;SDS011;59961;50.232;8.616;2023-04-24T11:44:01;2.30;;;1.43;;
72087;SDS011;59961;50.232;8.616;2023-04-24T11:46:27;1.77;;;1.30;;
72087;SDS011;59961;50.232;8.616;2023-04-24T11:48:53;1.57;;;0.90;;
72087;SDS011;59961;50.232;8.616;2023-04-24T11:51:18;2.00;;;1.27;;
72087;SDS011;59961;50.232;8.616;2023-04-24T11:53:43;2.63;;;1.50;;
72087;SDS011;59961;50.232;8.616;2023-04-24T11:56:09;1.90;;;1.10;;
72087;SDS011;59961;50.232;8.616;2023-04-24T11:58:34;3.03;;;1.30;;
72087;SDS011;59961;50.232;8.616;2023-04-24T12:01:00;2.90;;;1.30;;
72087;SDS011;59961;50.232;8.616;2023-04-24T12:03:26;2.47;;;1.50;;
72087;SDS011;59961;50.232;8.616;2023-04-24T12:05:51;2.83;;;1.30;;
72087;SDS011;59961;50.232;8.616;2023-04-24T12:08:28;3.47;;;1.40;;
72087;SDS011;59961;50.232;8.616;2023-04-24T12:10:54;5.03;;;1.20;;
72087;SDS011;59961;50.232;8.616;2023-04-24T12:13:19;2.20;;;1.00;;
72087;SDS011;59961;50.232;8.616;2023-04-24T12:15:44;3.27;;;1.30;;
72087;SDS011;59961;50.232;8.616;2023-04-24T12:18:11;3.07;;;1.70;;
72087;SDS011;59961;50.232;8.616;2023-04-24T12:20:37;3.60;;;1.60;;
72087;SDS011;59961;50.232;8.616;2023-04-24T12:23:02;3.78;;;1.60;;
72087;SDS011;59961;50.232;8.616;2023-04-24T12:25:28;4.13;;;1.70;;
72087;SDS011;59961;50.232;8.616;2023-04-24T12:27:54;3.55;;;1.20;;
72087;SDS011;59961;50.232;8.616;2023-04-24T12:30:20;2.67;;;1.50;;
72087;SDS011;59961;50.232;8.616;2023-04-24T12:32:46;5.35;;;1.70;;
72087;SDS011;59961;50.232;8.616;2023-04-24T12:35:12;2.03;;;1.45;;
72087;SDS011;59961;50.232;8.616;2023-04-24T12:37:37;3.87;;;1.80;;
72087;SDS011;59961;50.232;8.616;2023-04-24T12:42:30;2.83;;;1.77;;
72087;SDS011;59961;50.232;8.616;2023-04-24T12:44:56;3.97;;;1.60;;
72087;SDS011;59961;50.232;8.616;2023-04-24T12:47:23;5.43;;;2.20;;
72087;SDS011;59961;50.232;8.616;2023-04-24T12:49:49;3.20;;;1.52;;
72087;SDS011;59961;50.232;8.616;2023-04-24T12:52:15;3.90;;;1.60;;
72087;SDS011;59961;50.232;8.616;2023-04-24T12:54:42;4.07;;;2.00;;
72087;SDS011;59961;50.232;8.616;2023-04-24T12:57:07;4.43;;;2.15;;
72087;SDS011;59961;50.232;8.616;2023-04-24T12:59:32;5.82;;;1.65;;
72087;SDS011;59961;50.232;8.616;2023-04-24T13:01:57;2.73;;;1.67;;
72087;SDS011;59961;50.232;8.616;2023-04-24T13:04:23;4.55;;;2.20;;
72087;SDS011;59961;50.232;8.616;2023-04-24T13:06:48;7.90;;;2.13;;
72087;SDS011;59961;50.232;8.616;2023-04-24T13:09:13;4.38;;;2.10;;
72087;SDS011;59961;50.232;8.616;2023-04-24T13:11:38;5.50;;;2.30;;
72087;SDS011;59961;50.232;8.616;2023-04-24T13:14:03;3.00;;;1.92;;
72087;SDS011;59961;50.232;8.616;2023-04-24T13:16:28;4.97;;;2.47;;
72087;SDS011;59961;50.232;8.616;2023-04-24T13:18:53;3.28;;;1.77;;
72087;SDS011;59961;50.232;8.616;2023-04-24T13:21:19;4.67;;;2.17;;
72087;SDS011;59961;50.232;8.616;2023-04-24T13:23:44;5.33;;;2.60;;
72087;SDS011;59961;50.232;8.616;2023-04-24T13:26:09;4.03;;;2.20;;
72087;SDS011;59961;50.232;8.616;2023-04-24T13:28:34;4.63;;;2.77;;
72087;SDS011;59961;50.232;8.616;2023-04-24T13:30:59;4.23;;;2.03;;
72087;SDS011;59961;50.232;8.616;2023-04-24T13:33:25;3.85;;;2.03;;
72087;SDS011;59961;50.232;8.616;2023-04-24T13:35:50;4.17;;;2.03;;
72087;SDS011;59961;50.232;8.616;2023-04-24T13:38:15;5.97;;;2.10;;
72087;SDS011;59961;50.232;8.616;2023-04-24T13:40:40;4.95;;;2.10;;
72087;SDS011;59961;50.232;8.616;2023-04-24T13:43:05;6.03;;;2.23;;
72087;SDS011;59961;50.232;8.616;2023-04-24T13:45:31;3.97;;;2.37;;
72087;SDS011;59961;50.232;8.616;2023-04-24T13:47:56;7.60;;;2.43;;
72087;SDS011;59961;50.232;8.616;2023-04-24T13:50:22;3.13;;;1.75;;
72087;SDS011;59961;50.232;8.616;2023-04-24T13:52:47;5.10;;;2.10;;
72087;SDS011;59961;50.232;8.616;2023-04-24T13:55:12;6.32;;;2.50;;
72087;SDS011;59961;50.232;8.616;2023-04-24T13:57:37;4.67;;;2.53;;
72087;SDS011;59961;50.232;8.616;2023-04-24T14:00:03;5.45;;;2.53;;
72087;SDS011;59961;50.232;8.616;2023-04-24T14:02:29;5.00;;;2.30;;
72087;SDS011;59961;50.232;8.616;2023-04-24T14:04:54;6.80;;;2.63;;
72087;SDS011;59961;50.232;8.616;2023-04-24T14:07:19;5.80;;;2.87;;
72087;SDS011;59961;50.232;8.616;2023-04-24T14:09:44;8.37;;;3.10;;
72087;SDS011;59961;50.232;8.616;2023-04-24T14:12:09;5.30;;;2.63;;
72087;SDS011;59961;50.232;8.616;2023-04-24T14:14:34;5.80;;;3.05;;
72087;SDS011;59961;50.232;8.616;2023-04-24T14:17:00;5.63;;;2.90;;
72087;SDS011;59961;50.232;8.616;2023-04-24T14:19:25;5.13;;;2.13;;
72087;SDS011;59961;50.232;8.616;2023-04-24T14:21:50;5.40;;;2.10;;
72087;SDS011;59961;50.232;8.616;2023-04-24T14:24:15;6.60;;;2.60;;
72087;SDS011;59961;50.232;8.616;2023-04-24T14:26:40;6.35;;;2.35;;
72087;SDS011;59961;50.232;8.616;2023-04-24T14:29:05;8.00;;;2.50;;
72087;SDS011;59961;50.232;8.616;2023-04-24T14:31:31;7.23;;;2.93;;
72087;SDS011;59961;50.232;8.616;2023-04-24T14:33:56;6.70;;;2.30;;
72087;SDS011;59961;50.232;8.616;2023-04-24T14:36:22;5.07;;;2.47;;
72087;SDS011;59961;50.232;8.616;2023-04-24T14:38:47;4.10;;;2.00;;
72087;SDS011;59961;50.232;8.616;2023-04-24T14:41:12;5.90;;;2.90;;
72087;SDS011;59961;50.232;8.616;2023-04-24T14:43:38;4.57;;;2.03;;
72087;SDS011;59961;50.232;8.616;2023-04-24T14:46:03;5.17;;;2.60;;
72087;SDS011;59961;50.232;8.616;2023-04-24T14:48:28;5.03;;;2.33;;
72087;SDS011;59961;50.232;8.616;2023-04-24T14:50:53;5.13;;;2.73;;